sensor_id;sensor_type;location;lat;lon;timestamp;P1;durP1;ratioP1;P2;durP2;ratioP2
215;SDS011;45701;48.81287245;9.14186865;2022-08-01T00:01:26;8.60;;;4.57;;
215;SDS011;45701;48.81287245;9.14186865;2022-08-01T00:03:54;7.67;;;4.70;;
215;SDS011;45701;48.81287245;9.14186865;2022-08-01T00:06:21;7.80;;;4.83;;
215;SDS011;45701;48.81287245;9.14186865;2022-08-01T00:08:47;6.40;;;4.50;;
215;SDS011;45701;48.81287245;9.14186865;2022-08-01T00:11:14;6.30;;;4.00;;
215;SDS011;45701;48.81287245;9.14186865;2022-08-01T00:13:41;8.60;;;4.30;;
215;SDS011;45701;48.81287245;9.14186865;2022-08-01T00:16:07;6.80;;;4.10;;
215;SDS011;45701;48.81287245;9.14186865;2022-08-01T00:18:34;7.80;;;4.70;;
215;SDS011;45701;48.81287245;9.14186865;2022-08-01T00:21:03;8.57;;;4.43;;
215;SDS011;45701;48.81287245;9.14186865;2022-08-01T00:23:30;9.03;;;4.10;;
215;SDS011;45701;48.81287245;9.14186865;2022-08-01T00:25:57;6.37;;;4.30;;
215;SDS011;45701;48.81287245;9.14186865;2022-08-01T00:28:23;6.23;;;3.93;;
215;SDS011;45701;48.81287245;9.14186865;2022-08-01T00:30:50;7.10;;;4.70;;
215;SDS011;45701;48.81287245;9.14186865;2022-08-01T00:33:16;6.50;;;4.50;;
215;SDS011;45701;48.81287245;9.14186865;2022-08-01T00:35:43;7.93;;;4.40;;
215;SDS011;45701;48.81287245;9.14186865;2022-08-01T00:38:11;6.70;;;4.60;;
215;SDS011;45701;48.81287245;9.14186865;2022-08-01T00:40:38;7.83;;;4.10;;
215;SDS011;45701;48.81287245;9.14186865;2022-08-01T00:43:05;7.40;;;4.70;;
215;SDS011;45701;48.81287245;9.14186865;2022-08-01T00:45:31;9.23;;;4.77;;
215;SDS011;45701;48.81287245;9.14186865;2022-08-01T00:47:58;7.00;;;4.03;;
215;SDS011;45701;48.81287245;9.14186865;2022-08-01T00:50:24;9.93;;;4.60;;
215;SDS011;45701;48.81287245;9.14186865;2022-08-01T00:52:51;6.07;;;4.57;;
215;SDS011;45701;48.81287245;9.14186865;2022-08-01T00:55:21;5.70;;;4.23;;
215;SDS011;45701;48.81287245;9.14186865;2022-08-01T00:57:47;7.40;;;4.70;;
215;SDS011;45701;48.81287245;9.14186865;2022-08-01T01:00:14;6.83;;;4.50;;
215;SDS011;45701;48.81287245;9.14186865;2022-08-01T01:02:41;7.30;;;5.17;;
215;SDS011;45701;48.81287245;9.14186865;2022-08-01T01:05:09;7.70;;;4.93;;
215;SDS011;45701;48.81287245;9.14186865;2022-08-01T01:07:37;6.60;;;4.70;;
215;SDS011;45701;48.81287245;9.14186865;2022-08-01T01:10:12;7.27;;;4.60;;
215;SDS011;45701;48.81287245;9.14186865;2022-08-01T01:12:44;7.30;;;4.70;;
215;SDS011;45701;48.81287245;9.14186865;2022-08-01T01:15:18;6.13;;;4.20;;
215;SDS011;45701;48.81287245;9.14186865;2022-08-01T01:17:51;9.60;;;5.00;;
215;SDS011;45701;48.81287245;9.14186865;2022-08-01T01:20:23;7.53;;;5.13;;
215;SDS011;45701;48.81287245;9.14186865;2022-08-01T01:22:56;6.93;;;5.00;;
215;SDS011;45701;48.81287245;9.14186865;2022-08-01T01:25:46;6.97;;;4.43;;
215;SDS011;45701;48.81287245;9.14186865;2022-08-01T01:28:29;7.87;;;5.23;;
215;SDS011;45701;48.81287245;9.14186865;2022-08-01T01:31:01;7.77;;;5.03;;
215;SDS011;45701;48.81287245;9.14186865;2022-08-01T01:33:29;6.60;;;4.70;;
215;SDS011;45701;48.81287245;9.14186865;2022-08-01T01:35:59;7.67;;;4.83;;
215;SDS011;45701;48.81287245;9.14186865;2022-08-01T01:38:32;8.30;;;4.77;;
215;SDS011;45701;48.81287245;9.14186865;2022-08-01T01:41:00;8.33;;;4.70;;
215;SDS011;45701;48.81287245;9.14186865;2022-08-01T01:43:29;8.17;;;4.93;;
215;SDS011;45701;48.81287245;9.14186865;2022-08-01T01:45:57;7.00;;;5.00;;
215;SDS011;45701;48.81287245;9.14186865;2022-08-01T01:48:25;9.37;;;4.90;;
215;SDS011;45701;48.81287245;9.14186865;2022-08-01T01:50:53;8.13;;;4.97;;
215;SDS011;45701;48.81287245;9.14186865;2022-08-01T01:53:21;6.87;;;4.90;;
215;SDS011;45701;48.81287245;9.14186865;2022-08-01T01:55:50;7.57;;;4.80;;
215;SDS011;45701;48.81287245;9.14186865;2022-08-01T01:58:19;8.50;;;4.70;;
215;SDS011;45701;48.81287245;9.14186865;2022-08-01T02:00:47;10.50;;;4.97;;
215;SDS011;45701;48.81287245;9.14186865;2022-08-01T02:03:16;8.77;;;4.70;;
215;SDS011;45701;48.81287245;9.14186865;2022-08-01T02:05:45;9.17;;;5.90;;
215;SDS011;45701;48.81287245;9.14186865;2022-08-01T02:08:14;9.47;;;5.70;;
215;SDS011;45701;48.81287245;9.14186865;2022-08-01T02:10:42;10.03;;;6.00;;
215;SDS011;45701;48.81287245;9.14186865;2022-08-01T02:13:31;7.67;;;5.17;;
215;SDS011;45701;48.81287245;9.14186865;2022-08-01T02:16:00;6.60;;;5.07;;
215;SDS011;45701;48.81287245;9.14186865;2022-08-01T02:18:29;7.33;;;4.80;;
215;SDS011;45701;48.81287245;9.14186865;2022-08-01T02:20:57;10.27;;;5.10;;
215;SDS011;45701;48.81287245;9.14186865;2022-08-01T02:23:25;7.50;;;5.10;;
215;SDS011;45701;48.81287245;9.14186865;2022-08-01T02:25:56;8.80;;;5.20;;
215;SDS011;45701;48.81287245;9.14186865;2022-08-01T02:28:24;9.30;;;5.17;;
215;SDS011;45701;48.81287245;9.14186865;2022-08-01T02:30:56;9.57;;;5.00;;
215;SDS011;45701;48.81287245;9.14186865;2022-08-01T02:33:29;13.90;;;5.00;;
215;SDS011;45701;48.81287245;9.14186865;2022-08-01T02:36:03;14.10;;;5.17;;
215;SDS011;45701;48.81287245;9.14186865;2022-08-01T02:38:31;7.53;;;5.20;;
215;SDS011;45701;48.81287245;9.14186865;2022-08-01T02:41:02;7.70;;;5.07;;
215;SDS011;45701;48.81287245;9.14186865;2022-08-01T02:43:32;7.90;;;5.20;;
215;SDS011;45701;48.81287245;9.14186865;2022-08-01T02:46:02;7.37;;;4.90;;
215;SDS011;45701;48.81287245;9.14186865;2022-08-01T02:48:33;8.90;;;5.40;;
215;SDS011;45701;48.81287245;9.14186865;2022-08-01T02:51:03;11.80;;;5.33;;
215;SDS011;45701;48.81287245;9.14186865;2022-08-01T02:53:32;9.83;;;5.50;;
215;SDS011;45701;48.81287245;9.14186865;2022-08-01T02:56:02;7.60;;;5.10;;
215;SDS011;45701;48.81287245;9.14186865;2022-08-01T02:58:30;7.03;;;4.83;;
215;SDS011;45701;48.81287245;9.14186865;2022-08-01T03:00:59;7.73;;;5.43;;
215;SDS011;45701;48.81287245;9.14186865;2022-08-01T03:03:28;7.30;;;5.00;;
215;SDS011;45701;48.81287245;9.14186865;2022-08-01T03:05:55;7.27;;;5.30;;
215;SDS011;45701;48.81287245;9.14186865;2022-08-01T03:08:25;9.47;;;5.00;;
215;SDS011;45701;48.81287245;9.14186865;2022-08-01T03:10:55;8.67;;;5.40;;
215;SDS011;45701;48.81287245;9.14186865;2022-08-01T03:13:23;7.00;;;4.93;;
215;SDS011;45701;48.81287245;9.14186865;2022-08-01T03:15:51;9.00;;;5.20;;
215;SDS011;45701;48.81287245;9.14186865;2022-08-01T03:18:20;6.33;;;5.00;;
215;SDS011;45701;48.81287245;9.14186865;2022-08-01T03:20:49;7.73;;;5.40;;
215;SDS011;45701;48.81287245;9.14186865;2022-08-01T03:23:18;6.80;;;5.23;;
215;SDS011;45701;48.81287245;9.14186865;2022-08-01T03:25:48;7.53;;;5.20;;
215;SDS011;45701;48.81287245;9.14186865;2022-08-01T03:28:16;6.20;;;4.83;;
215;SDS011;45701;48.81287245;9.14186865;2022-08-01T03:30:44;6.43;;;4.83;;
215;SDS011;45701;48.81287245;9.14186865;2022-08-01T03:33:12;8.53;;;4.90;;
215;SDS011;45701;48.81287245;9.14186865;2022-08-01T03:35:40;10.60;;;5.30;;
215;SDS011;45701;48.81287245;9.14186865;2022-08-01T03:38:11;7.87;;;5.07;;
215;SDS011;45701;48.81287245;9.14186865;2022-08-01T03:40:47;8.10;;;5.03;;
215;SDS011;45701;48.81287245;9.14186865;2022-08-01T03:43:18;6.60;;;4.87;;
215;SDS011;45701;48.81287245;9.14186865;2022-08-01T03:45:49;9.37;;;5.00;;
215;SDS011;45701;48.81287245;9.14186865;2022-08-01T03:48:19;8.03;;;5.20;;
215;SDS011;45701;48.81287245;9.14186865;2022-08-01T03:50:50;9.30;;;5.10;;
215;SDS011;45701;48.81287245;9.14186865;2022-08-01T03:53:19;7.77;;;4.97;;
215;SDS011;45701;48.81287245;9.14186865;2022-08-01T03:55:50;10.37;;;4.97;;
215;SDS011;45701;48.81287245;9.14186865;2022-08-01T03:58:19;9.20;;;5.17;;
215;SDS011;45701;48.81287245;9.14186865;2022-08-01T04:00:47;7.20;;;5.13;;
215;SDS011;45701;48.81287245;9.14186865;2022-08-01T04:03:15;8.20;;;4.43;;
215;SDS011;45701;48.81287245;9.14186865;2022-08-01T04:05:43;8.13;;;5.10;;
215;SDS011;45701;48.81287245;9.14186865;2022-08-01T04:08:10;7.80;;;5.17;;
215;SDS011;45701;48.81287245;9.14186865;2022-08-01T04:10:36;6.63;;;4.57;;
215;SDS011;45701;48.81287245;9.14186865;2022-08-01T04:13:05;7.53;;;4.80;;
215;SDS011;45701;48.81287245;9.14186865;2022-08-01T04:15:32;6.80;;;4.70;;
215;SDS011;45701;48.81287245;9.14186865;2022-08-01T04:17:58;7.43;;;4.63;;
215;SDS011;45701;48.81287245;9.14186865;2022-08-01T04:20:25;7.47;;;4.87;;
215;SDS011;45701;48.81287245;9.14186865;2022-08-01T04:22:52;9.47;;;4.40;;
215;SDS011;45701;48.81287245;9.14186865;2022-08-01T04:25:19;7.20;;;4.80;;
215;SDS011;45701;48.81287245;9.14186865;2022-08-01T04:27:51;7.10;;;4.80;;
215;SDS011;45701;48.81287245;9.14186865;2022-08-01T04:30:21;9.10;;;4.80;;
215;SDS011;45701;48.81287245;9.14186865;2022-08-01T04:32:50;7.40;;;4.80;;
215;SDS011;45701;48.81287245;9.14186865;2022-08-01T04:35:18;9.80;;;5.17;;
215;SDS011;45701;48.81287245;9.14186865;2022-08-01T04:37:46;6.70;;;4.40;;
215;SDS011;45701;48.81287245;9.14186865;2022-08-01T04:40:16;6.97;;;4.90;;
215;SDS011;45701;48.81287245;9.14186865;2022-08-01T04:42:43;9.00;;;5.00;;
215;SDS011;45701;48.81287245;9.14186865;2022-08-01T04:45:10;7.00;;;4.70;;
215;SDS011;45701;48.81287245;9.14186865;2022-08-01T04:47:39;8.57;;;4.70;;
215;SDS011;45701;48.81287245;9.14186865;2022-08-01T04:50:07;8.40;;;4.40;;
215;SDS011;45701;48.81287245;9.14186865;2022-08-01T04:52:34;7.43;;;4.23;;
215;SDS011;45701;48.81287245;9.14186865;2022-08-01T04:55:02;7.43;;;4.40;;
215;SDS011;45701;48.81287245;9.14186865;2022-08-01T04:57:31;10.23;;;4.93;;
215;SDS011;45701;48.81287245;9.14186865;2022-08-01T05:00:00;6.47;;;4.67;;
215;SDS011;45701;48.81287245;9.14186865;2022-08-01T05:02:27;8.63;;;4.43;;
215;SDS011;45701;48.81287245;9.14186865;2022-08-01T05:04:55;6.20;;;4.37;;
215;SDS011;45701;48.81287245;9.14186865;2022-08-01T05:07:22;7.63;;;4.80;;
215;SDS011;45701;48.81287245;9.14186865;2022-08-01T05:09:48;7.87;;;4.07;;
215;SDS011;45701;48.81287245;9.14186865;2022-08-01T05:12:15;6.73;;;3.97;;
215;SDS011;45701;48.81287245;9.14186865;2022-08-01T05:14:42;5.33;;;3.90;;
215;SDS011;45701;48.81287245;9.14186865;2022-08-01T05:17:09;7.70;;;4.13;;
215;SDS011;45701;48.81287245;9.14186865;2022-08-01T05:19:37;5.67;;;4.03;;
215;SDS011;45701;48.81287245;9.14186865;2022-08-01T05:22:06;5.60;;;3.57;;
215;SDS011;45701;48.81287245;9.14186865;2022-08-01T05:24:35;6.50;;;3.87;;
215;SDS011;45701;48.81287245;9.14186865;2022-08-01T05:27:03;10.50;;;3.80;;
215;SDS011;45701;48.81287245;9.14186865;2022-08-01T05:29:31;5.90;;;3.63;;
215;SDS011;45701;48.81287245;9.14186865;2022-08-01T05:31:58;6.53;;;3.70;;
215;SDS011;45701;48.81287245;9.14186865;2022-08-01T05:34:25;6.03;;;3.83;;
215;SDS011;45701;48.81287245;9.14186865;2022-08-01T05:36:52;6.93;;;3.67;;
215;SDS011;45701;48.81287245;9.14186865;2022-08-01T05:39:20;6.30;;;3.60;;
215;SDS011;45701;48.81287245;9.14186865;2022-08-01T05:41:50;7.53;;;3.80;;
215;SDS011;45701;48.81287245;9.14186865;2022-08-01T05:44:16;4.83;;;3.63;;
215;SDS011;45701;48.81287245;9.14186865;2022-08-01T05:46:43;6.50;;;3.63;;
215;SDS011;45701;48.81287245;9.14186865;2022-08-01T05:49:09;7.90;;;3.70;;
215;SDS011;45701;48.81287245;9.14186865;2022-08-01T05:51:36;5.37;;;3.30;;
215;SDS011;45701;48.81287245;9.14186865;2022-08-01T05:54:03;5.93;;;3.47;;
215;SDS011;45701;48.81287245;9.14186865;2022-08-01T05:56:31;6.50;;;3.63;;
215;SDS011;45701;48.81287245;9.14186865;2022-08-01T05:58:58;6.47;;;3.50;;
215;SDS011;45701;48.81287245;9.14186865;2022-08-01T06:01:24;4.40;;;3.20;;
215;SDS011;45701;48.81287245;9.14186865;2022-08-01T06:03:51;6.27;;;3.63;;
215;SDS011;45701;48.81287245;9.14186865;2022-08-01T06:06:19;5.30;;;3.30;;
215;SDS011;45701;48.81287245;9.14186865;2022-08-01T06:08:46;7.43;;;3.40;;
215;SDS011;45701;48.81287245;9.14186865;2022-08-01T06:11:12;4.63;;;3.13;;
215;SDS011;45701;48.81287245;9.14186865;2022-08-01T06:13:41;4.73;;;3.13;;
215;SDS011;45701;48.81287245;9.14186865;2022-08-01T06:16:07;5.70;;;3.57;;
215;SDS011;45701;48.81287245;9.14186865;2022-08-01T06:18:34;4.63;;;3.30;;
215;SDS011;45701;48.81287245;9.14186865;2022-08-01T06:21:01;6.10;;;3.27;;
215;SDS011;45701;48.81287245;9.14186865;2022-08-01T06:23:27;5.97;;;3.40;;
215;SDS011;45701;48.81287245;9.14186865;2022-08-01T06:25:54;6.80;;;3.43;;
215;SDS011;45701;48.81287245;9.14186865;2022-08-01T06:28:21;5.43;;;3.30;;
215;SDS011;45701;48.81287245;9.14186865;2022-08-01T06:30:49;4.10;;;2.90;;
215;SDS011;45701;48.81287245;9.14186865;2022-08-01T06:33:16;5.70;;;3.00;;
215;SDS011;45701;48.81287245;9.14186865;2022-08-01T06:35:42;4.90;;;3.10;;
215;SDS011;45701;48.81287245;9.14186865;2022-08-01T06:38:09;8.10;;;3.83;;
215;SDS011;45701;48.81287245;9.14186865;2022-08-01T06:40:36;4.77;;;3.20;;
215;SDS011;45701;48.81287245;9.14186865;2022-08-01T06:43:03;4.40;;;2.80;;
215;SDS011;45701;48.81287245;9.14186865;2022-08-01T06:45:30;5.93;;;3.20;;
215;SDS011;45701;48.81287245;9.14186865;2022-08-01T06:47:58;6.83;;;2.90;;
215;SDS011;45701;48.81287245;9.14186865;2022-08-01T06:50:24;6.97;;;3.10;;
215;SDS011;45701;48.81287245;9.14186865;2022-08-01T06:52:51;4.40;;;3.10;;
215;SDS011;45701;48.81287245;9.14186865;2022-08-01T06:55:18;6.53;;;3.00;;
215;SDS011;45701;48.81287245;9.14186865;2022-08-01T06:57:46;5.70;;;3.47;;
215;SDS011;45701;48.81287245;9.14186865;2022-08-01T07:00:14;4.73;;;2.70;;
215;SDS011;45701;48.81287245;9.14186865;2022-08-01T07:02:43;7.23;;;3.17;;
215;SDS011;45701;48.81287245;9.14186865;2022-08-01T07:05:12;5.30;;;3.27;;
215;SDS011;45701;48.81287245;9.14186865;2022-08-01T07:07:38;6.67;;;3.03;;
215;SDS011;45701;48.81287245;9.14186865;2022-08-01T07:10:05;5.33;;;3.10;;
215;SDS011;45701;48.81287245;9.14186865;2022-08-01T07:12:33;6.07;;;3.40;;
215;SDS011;45701;48.81287245;9.14186865;2022-08-01T07:15:02;7.70;;;3.30;;
215;SDS011;45701;48.81287245;9.14186865;2022-08-01T07:17:29;5.17;;;3.00;;
215;SDS011;45701;48.81287245;9.14186865;2022-08-01T07:19:55;4.57;;;3.10;;
215;SDS011;45701;48.81287245;9.14186865;2022-08-01T07:22:23;7.30;;;3.40;;
215;SDS011;45701;48.81287245;9.14186865;2022-08-01T07:24:50;7.60;;;3.20;;
215;SDS011;45701;48.81287245;9.14186865;2022-08-01T07:27:17;4.60;;;3.00;;
215;SDS011;45701;48.81287245;9.14186865;2022-08-01T07:29:43;4.50;;;3.10;;
215;SDS011;45701;48.81287245;9.14186865;2022-08-01T07:32:10;5.90;;;3.13;;
215;SDS011;45701;48.81287245;9.14186865;2022-08-01T07:34:36;9.77;;;3.33;;
215;SDS011;45701;48.81287245;9.14186865;2022-08-01T07:37:03;6.83;;;3.10;;
215;SDS011;45701;48.81287245;9.14186865;2022-08-01T07:39:31;5.87;;;3.13;;
215;SDS011;45701;48.81287245;9.14186865;2022-08-01T07:41:58;5.73;;;3.20;;
215;SDS011;45701;48.81287245;9.14186865;2022-08-01T07:44:24;6.87;;;3.17;;
215;SDS011;45701;48.81287245;9.14186865;2022-08-01T07:46:51;5.57;;;3.40;;
215;SDS011;45701;48.81287245;9.14186865;2022-08-01T07:49:18;5.53;;;3.30;;
215;SDS011;45701;48.81287245;9.14186865;2022-08-01T07:51:46;6.33;;;3.60;;
215;SDS011;45701;48.81287245;9.14186865;2022-08-01T07:54:13;8.93;;;4.03;;
215;SDS011;45701;48.81287245;9.14186865;2022-08-01T07:56:42;7.63;;;3.60;;
215;SDS011;45701;48.81287245;9.14186865;2022-08-01T07:59:08;8.00;;;3.70;;
215;SDS011;45701;48.81287245;9.14186865;2022-08-01T08:01:35;6.43;;;3.63;;
215;SDS011;45701;48.81287245;9.14186865;2022-08-01T08:04:01;8.13;;;3.27;;
215;SDS011;45701;48.81287245;9.14186865;2022-08-01T08:06:28;4.77;;;3.53;;
215;SDS011;45701;48.81287245;9.14186865;2022-08-01T08:08:55;8.00;;;3.30;;
215;SDS011;45701;48.81287245;9.14186865;2022-08-01T08:11:21;5.80;;;3.27;;
215;SDS011;45701;48.81287245;9.14186865;2022-08-01T08:13:49;5.63;;;3.70;;
215;SDS011;45701;48.81287245;9.14186865;2022-08-01T08:16:16;8.67;;;3.37;;
215;SDS011;45701;48.81287245;9.14186865;2022-08-01T08:18:43;6.30;;;3.87;;
215;SDS011;45701;48.81287245;9.14186865;2022-08-01T08:21:09;6.13;;;3.50;;
215;SDS011;45701;48.81287245;9.14186865;2022-08-01T08:23:36;5.70;;;3.60;;
215;SDS011;45701;48.81287245;9.14186865;2022-08-01T08:26:20;7.80;;;3.47;;
215;SDS011;45701;48.81287245;9.14186865;2022-08-01T08:28:50;5.77;;;3.50;;
215;SDS011;45701;48.81287245;9.14186865;2022-08-01T08:31:16;4.93;;;3.30;;
215;SDS011;45701;48.81287245;9.14186865;2022-08-01T08:33:43;8.03;;;3.50;;
215;SDS011;45701;48.81287245;9.14186865;2022-08-01T08:36:09;7.07;;;3.73;;
215;SDS011;45701;48.81287245;9.14186865;2022-08-01T08:38:37;4.50;;;3.20;;
215;SDS011;45701;48.81287245;9.14186865;2022-08-01T08:41:03;8.50;;;3.80;;
215;SDS011;45701;48.81287245;9.14186865;2022-08-01T08:43:31;24.20;;;4.27;;
215;SDS011;45701;48.81287245;9.14186865;2022-08-01T08:45:59;5.63;;;3.90;;
215;SDS011;45701;48.81287245;9.14186865;2022-08-01T08:48:26;8.63;;;4.80;;
215;SDS011;45701;48.81287245;9.14186865;2022-08-01T08:50:53;8.80;;;5.50;;
215;SDS011;45701;48.81287245;9.14186865;2022-08-01T08:53:21;11.07;;;6.00;;
215;SDS011;45701;48.81287245;9.14186865;2022-08-01T08:55:48;9.93;;;5.53;;
215;SDS011;45701;48.81287245;9.14186865;2022-08-01T08:58:16;12.80;;;6.77;;
215;SDS011;45701;48.81287245;9.14186865;2022-08-01T09:00:45;13.13;;;7.77;;
215;SDS011;45701;48.81287245;9.14186865;2022-08-01T09:03:13;39.70;;;8.63;;
215;SDS011;45701;48.81287245;9.14186865;2022-08-01T09:05:40;12.90;;;7.83;;
215;SDS011;45701;48.81287245;9.14186865;2022-08-01T09:08:08;15.10;;;8.33;;
215;SDS011;45701;48.81287245;9.14186865;2022-08-01T09:10:34;15.50;;;8.30;;
215;SDS011;45701;48.81287245;9.14186865;2022-08-01T09:13:02;14.80;;;8.20;;
215;SDS011;45701;48.81287245;9.14186865;2022-08-01T09:15:42;16.03;;;8.50;;
215;SDS011;45701;48.81287245;9.14186865;2022-08-01T09:18:27;10.50;;;6.00;;
215;SDS011;45701;48.81287245;9.14186865;2022-08-01T09:23:42;9.00;;;5.60;;
215;SDS011;45701;48.81287245;9.14186865;2022-08-01T09:26:10;9.10;;;5.43;;
215;SDS011;45701;48.81287245;9.14186865;2022-08-01T09:28:38;9.33;;;5.23;;
215;SDS011;45701;48.81287245;9.14186865;2022-08-01T09:31:05;11.50;;;5.17;;
215;SDS011;45701;48.81287245;9.14186865;2022-08-01T09:33:48;11.73;;;5.03;;
215;SDS011;45701;48.81287245;9.14186865;2022-08-01T09:36:16;8.40;;;5.07;;
215;SDS011;45701;48.81287245;9.14186865;2022-08-01T09:38:43;10.97;;;5.70;;
215;SDS011;45701;48.81287245;9.14186865;2022-08-01T09:41:10;7.50;;;5.43;;
215;SDS011;45701;48.81287245;9.14186865;2022-08-01T09:43:37;13.43;;;7.03;;
215;SDS011;45701;48.81287245;9.14186865;2022-08-01T09:46:04;17.77;;;5.90;;
215;SDS011;45701;48.81287245;9.14186865;2022-08-01T09:48:35;8.60;;;6.03;;
215;SDS011;45701;48.81287245;9.14186865;2022-08-01T09:51:05;14.70;;;6.87;;
215;SDS011;45701;48.81287245;9.14186865;2022-08-01T09:53:39;11.77;;;6.57;;
215;SDS011;45701;48.81287245;9.14186865;2022-08-01T09:56:08;10.40;;;6.37;;
215;SDS011;45701;48.81287245;9.14186865;2022-08-01T09:58:48;10.27;;;5.87;;
215;SDS011;45701;48.81287245;9.14186865;2022-08-01T10:01:15;12.53;;;7.20;;
215;SDS011;45701;48.81287245;9.14186865;2022-08-01T10:03:42;10.80;;;7.00;;
215;SDS011;45701;48.81287245;9.14186865;2022-08-01T10:06:19;9.33;;;6.63;;
215;SDS011;45701;48.81287245;9.14186865;2022-08-01T10:08:47;8.57;;;6.40;;
215;SDS011;45701;48.81287245;9.14186865;2022-08-01T10:11:14;12.00;;;6.77;;
215;SDS011;45701;48.81287245;9.14186865;2022-08-01T10:13:40;9.53;;;6.33;;
215;SDS011;45701;48.81287245;9.14186865;2022-08-01T10:16:07;10.90;;;6.10;;
215;SDS011;45701;48.81287245;9.14186865;2022-08-01T10:18:36;11.43;;;5.53;;
215;SDS011;45701;48.81287245;9.14186865;2022-08-01T10:21:06;6.80;;;4.70;;
215;SDS011;45701;48.81287245;9.14186865;2022-08-01T10:23:35;12.67;;;4.70;;
215;SDS011;45701;48.81287245;9.14186865;2022-08-01T10:26:04;6.00;;;4.40;;
215;SDS011;45701;48.81287245;9.14186865;2022-08-01T10:28:32;12.90;;;4.33;;
215;SDS011;45701;48.81287245;9.14186865;2022-08-01T10:31:02;8.80;;;4.70;;
215;SDS011;45701;48.81287245;9.14186865;2022-08-01T10:33:29;11.83;;;5.20;;
215;SDS011;45701;48.81287245;9.14186865;2022-08-01T10:35:56;7.40;;;5.30;;
215;SDS011;45701;48.81287245;9.14186865;2022-08-01T10:38:23;7.30;;;5.53;;
215;SDS011;45701;48.81287245;9.14186865;2022-08-01T10:40:51;9.90;;;6.07;;
215;SDS011;45701;48.81287245;9.14186865;2022-08-01T10:43:19;9.40;;;5.90;;
215;SDS011;45701;48.81287245;9.14186865;2022-08-01T10:45:46;14.90;;;7.10;;
215;SDS011;45701;48.81287245;9.14186865;2022-08-01T10:48:14;8.60;;;5.77;;
215;SDS011;45701;48.81287245;9.14186865;2022-08-01T10:50:45;10.77;;;6.10;;
215;SDS011;45701;48.81287245;9.14186865;2022-08-01T10:53:15;10.00;;;5.53;;
215;SDS011;45701;48.81287245;9.14186865;2022-08-01T10:55:46;10.33;;;5.50;;
215;SDS011;45701;48.81287245;9.14186865;2022-08-01T10:58:15;17.00;;;5.53;;
215;SDS011;45701;48.81287245;9.14186865;2022-08-01T11:00:46;8.10;;;5.70;;
215;SDS011;45701;48.81287245;9.14186865;2022-08-01T11:03:13;8.23;;;5.90;;
215;SDS011;45701;48.81287245;9.14186865;2022-08-01T11:05:39;13.20;;;5.97;;
215;SDS011;45701;48.81287245;9.14186865;2022-08-01T11:08:12;7.80;;;5.80;;
215;SDS011;45701;48.81287245;9.14186865;2022-08-01T11:10:47;7.80;;;5.50;;
215;SDS011;45701;48.81287245;9.14186865;2022-08-01T11:13:15;18.43;;;6.03;;
215;SDS011;45701;48.81287245;9.14186865;2022-08-01T11:16:24;6.93;;;5.57;;
215;SDS011;45701;48.81287245;9.14186865;2022-08-01T11:18:51;6.80;;;4.80;;
215;SDS011;45701;48.81287245;9.14186865;2022-08-01T11:21:18;8.70;;;4.70;;
215;SDS011;45701;48.81287245;9.14186865;2022-08-01T11:23:46;8.53;;;5.20;;
215;SDS011;45701;48.81287245;9.14186865;2022-08-01T11:26:14;6.93;;;4.60;;
215;SDS011;45701;48.81287245;9.14186865;2022-08-01T11:28:44;8.00;;;4.90;;
215;SDS011;45701;48.81287245;9.14186865;2022-08-01T11:31:24;7.60;;;4.70;;
215;SDS011;45701;48.81287245;9.14186865;2022-08-01T11:33:53;6.30;;;5.03;;
215;SDS011;45701;48.81287245;9.14186865;2022-08-01T11:36:20;7.67;;;5.10;;
215;SDS011;45701;48.81287245;9.14186865;2022-08-01T11:38:48;7.33;;;5.30;;
215;SDS011;45701;48.81287245;9.14186865;2022-08-01T11:41:16;8.90;;;5.50;;
215;SDS011;45701;48.81287245;9.14186865;2022-08-01T11:43:57;5.90;;;4.90;;
215;SDS011;45701;48.81287245;9.14186865;2022-08-01T11:49:22;7.37;;;4.83;;
215;SDS011;45701;48.81287245;9.14186865;2022-08-01T11:51:55;8.50;;;5.00;;
215;SDS011;45701;48.81287245;9.14186865;2022-08-01T11:54:24;7.70;;;5.10;;
215;SDS011;45701;48.81287245;9.14186865;2022-08-01T11:56:54;7.20;;;4.90;;
215;SDS011;45701;48.81287245;9.14186865;2022-08-01T11:59:23;7.10;;;4.87;;
215;SDS011;45701;48.81287245;9.14186865;2022-08-01T12:01:51;9.83;;;5.00;;
215;SDS011;45701;48.81287245;9.14186865;2022-08-01T12:04:18;8.30;;;4.70;;
215;SDS011;45701;48.81287245;9.14186865;2022-08-01T12:06:44;8.23;;;4.40;;
215;SDS011;45701;48.81287245;9.14186865;2022-08-01T12:09:14;12.70;;;4.90;;
215;SDS011;45701;48.81287245;9.14186865;2022-08-01T12:11:42;6.83;;;5.03;;
215;SDS011;45701;48.81287245;9.14186865;2022-08-01T12:14:08;8.47;;;5.10;;
215;SDS011;45701;48.81287245;9.14186865;2022-08-01T12:16:37;7.37;;;5.13;;
215;SDS011;45701;48.81287245;9.14186865;2022-08-01T12:19:04;10.00;;;4.73;;
215;SDS011;45701;48.81287245;9.14186865;2022-08-01T12:21:31;9.40;;;5.00;;
215;SDS011;45701;48.81287245;9.14186865;2022-08-01T12:24:00;10.87;;;4.93;;
215;SDS011;45701;48.81287245;9.14186865;2022-08-01T12:26:38;10.30;;;5.00;;
215;SDS011;45701;48.81287245;9.14186865;2022-08-01T12:29:05;7.70;;;5.13;;
215;SDS011;45701;48.81287245;9.14186865;2022-08-01T12:31:32;8.07;;;5.00;;
215;SDS011;45701;48.81287245;9.14186865;2022-08-01T12:34:07;7.10;;;4.63;;
215;SDS011;45701;48.81287245;9.14186865;2022-08-01T12:36:51;6.80;;;4.97;;
215;SDS011;45701;48.81287245;9.14186865;2022-08-01T12:39:17;13.63;;;5.00;;
215;SDS011;45701;48.81287245;9.14186865;2022-08-01T12:41:44;9.83;;;5.07;;
215;SDS011;45701;48.81287245;9.14186865;2022-08-01T12:44:12;6.67;;;4.73;;
215;SDS011;45701;48.81287245;9.14186865;2022-08-01T12:46:41;8.10;;;4.90;;
215;SDS011;45701;48.81287245;9.14186865;2022-08-01T12:49:09;7.73;;;4.60;;
215;SDS011;45701;48.81287245;9.14186865;2022-08-01T12:51:36;7.83;;;4.37;;
215;SDS011;45701;48.81287245;9.14186865;2022-08-01T12:54:03;8.50;;;4.20;;
215;SDS011;45701;48.81287245;9.14186865;2022-08-01T12:56:33;5.60;;;3.80;;
215;SDS011;45701;48.81287245;9.14186865;2022-08-01T12:59:00;9.90;;;3.93;;
215;SDS011;45701;48.81287245;9.14186865;2022-08-01T13:01:27;11.67;;;4.50;;
215;SDS011;45701;48.81287245;9.14186865;2022-08-01T13:03:59;7.80;;;4.70;;
215;SDS011;45701;48.81287245;9.14186865;2022-08-01T13:06:29;9.00;;;4.67;;
215;SDS011;45701;48.81287245;9.14186865;2022-08-01T13:09:04;7.37;;;4.50;;
215;SDS011;45701;48.81287245;9.14186865;2022-08-01T13:11:31;7.93;;;4.80;;
215;SDS011;45701;48.81287245;9.14186865;2022-08-01T13:13:57;7.00;;;4.50;;
215;SDS011;45701;48.81287245;9.14186865;2022-08-01T13:16:25;10.10;;;4.80;;
215;SDS011;45701;48.81287245;9.14186865;2022-08-01T13:18:53;11.27;;;4.27;;
215;SDS011;45701;48.81287245;9.14186865;2022-08-01T13:21:21;7.47;;;4.77;;
215;SDS011;45701;48.81287245;9.14186865;2022-08-01T13:24:00;8.07;;;4.20;;